Time;durP1;ratioP1;P1;durP2;ratioP2;P2;SDS_P1;SDS_P2;PMS_P1;PMS_P2;Temp;Humidity;BMP_temperature;BMP_pressure;BME280_temperature;BME280_humidity;BME280_pressure;Samples;Min_cycle;Max_cycle;Signal;HPM_P1;HPM_P2
2022/02/16 00:02:25;;;;;;;9.80;6.55;;;10.50;99.90;;;;;;5013016;28;20061;-46
2022/02/16 00:04:51;;;;;;;12.55;7.78;;;10.50;99.90;;;;;;5010067;28;20045;-45
2022/02/16 00:07:16;;;;;;;12.63;7.53;;;10.60;99.90;;;;;;4978776;28;20124;-45
2022/02/16 00:09:42;;;;;;;11.13;6.70;;;10.90;99.90;;;;;;4996296;28;20077;-46
2022/02/16 00:12:08;;;;;;;10.40;6.88;;;10.90;99.90;;;;;;4980254;28;20477;-45
2022/02/16 00:14:34;;;;;;;10.32;6.80;;;11.00;99.90;;;;;;5008331;28;20072;-45
2022/02/16 00:17:00;;;;;;;8.23;5.88;;;11.30;99.90;;;;;;5011438;28;20133;-46
2022/02/16 00:19:26;;;;;;;12.35;5.85;;;11.20;99.90;;;;;;4942280;28;20043;-46
2022/02/16 00:21:52;;;;;;;12.52;7.63;;;11.00;99.90;;;;;;4909967;28;20147;-46
2022/02/16 00:24:19;;;;;;;9.27;7.00;;;10.80;99.90;;;;;;4973828;28;20129;-46
2022/02/16 00:26:45;;;;;;;9.10;7.05;;;10.90;99.90;;;;;;4973939;28;20038;-46
2022/02/16 00:29:11;;;;;;;10.95;7.10;;;11.20;99.90;;;;;;4944390;28;20046;-46
2022/02/16 00:31:38;;;;;;;13.80;9.38;;;11.40;99.90;;;;;;4986896;28;20042;-46
2022/02/16 00:34:04;;;;;;;12.57;8.23;;;11.40;99.90;;;;;;4992797;28;20533;-46
2022/02/16 00:36:30;;;;;;;13.20;8.50;;;11.40;99.90;;;;;;4992961;28;20050;-46
2022/02/16 00:38:56;;;;;;;11.40;7.50;;;11.50;99.90;;;;;;4993187;28;20046;-46
2022/02/16 00:41:22;;;;;;;11.52;7.75;;;11.40;99.90;;;;;;4961845;28;20038;-46
2022/02/16 00:43:48;;;;;;;10.35;5.55;;;11.40;99.90;;;;;;4993538;28;20117;-46
2022/02/16 00:46:14;;;;;;;8.95;5.07;;;11.30;99.90;;;;;;4976383;28;20039;-46
2022/02/16 00:48:40;;;;;;;6.55;5.25;;;11.20;99.90;;;;;;4976749;28;20437;-46
2022/02/16 00:51:06;;;;;;;10.07;6.30;;;11.00;99.90;;;;;;5010358;28;20120;-46
2022/02/16 00:53:32;;;;;;;9.52;5.30;;;11.00;99.90;;;;;;5010394;28;20030;-45
2022/02/16 00:55:57;;;;;;;8.88;4.25;;;10.90;99.90;;;;;;4979344;28;20045;-45
2022/02/16 00:58:23;;;;;;;7.65;4.47;;;10.90;99.90;;;;;;5014401;28;20029;-45
2022/02/16 01:00:49;;;;;;;8.85;4.75;;;10.80;99.90;;;;;;5009619;28;20041;-45
2022/02/16 01:03:15;;;;;;;10.35;6.70;;;10.70;99.90;;;;;;5010329;28;20128;-45
2022/02/16 01:05:41;;;;;;;10.85;5.85;;;10.60;99.90;;;;;;5013879;28;20029;-45
2022/02/16 01:08:10;;;;;;;11.60;6.95;;;10.50;99.90;;;;;;5009083;28;20045;-45
2022/02/16 01:10:37;;;;;;;12.88;7.07;;;10.40;99.90;;;;;;5013192;28;20058;-44
2022/02/16 01:13:04;;;;;;;9.68;6.63;;;10.30;99.90;;;;;;5009734;28;20022;-45
2022/02/16 01:15:29;;;;;;;10.35;7.45;;;10.30;99.90;;;;;;5006379;28;20060;-44
2022/02/16 01:17:55;;;;;;;13.15;8.88;;;10.20;99.90;;;;;;5010921;28;20053;-45
2022/02/16 01:20:21;;;;;;;11.50;8.20;;;10.10;99.90;;;;;;4947264;28;20437;-45
2022/02/16 01:22:47;;;;;;;14.82;8.27;;;10.10;99.90;;;;;;5013613;28;20378;-45
2022/02/16 01:25:13;;;;;;;13.18;7.25;;;10.00;99.90;;;;;;5013331;28;20030;-45
2022/02/16 01:27:39;;;;;;;12.05;8.02;;;10.00;99.90;;;;;;5012969;28;20091;-45
2022/02/16 01:30:06;;;;;;;12.75;8.73;;;9.90;99.90;;;;;;5012375;28;20537;-45
2022/02/16 01:32:32;;;;;;;14.25;9.40;;;9.90;99.90;;;;;;5012787;28;20032;-45
2022/02/16 01:34:58;;;;;;;13.95;10.48;;;10.00;99.90;;;;;;5031802;28;20404;-45
2022/02/16 01:37:24;;;;;;;15.70;9.88;;;10.00;99.90;;;;;;4998089;28;20041;-45
2022/02/16 01:39:50;;;;;;;13.80;9.45;;;10.10;99.90;;;;;;5031234;28;20069;-47
2022/02/16 01:42:18;;;;;;;12.05;8.50;;;10.10;99.90;;;;;;4995244;28;20042;-45
2022/02/16 01:44:44;;;;;;;14.88;10.32;;;10.00;99.90;;;;;;5026272;28;20037;-45
2022/02/16 01:47:10;;;;;;;14.70;10.40;;;10.10;99.90;;;;;;5029864;28;20036;-45
2022/02/16 01:49:37;;;;;;;15.05;11.32;;;10.00;99.90;;;;;;4982297;28;20088;-45
2022/02/16 01:52:05;;;;;;;17.17;11.70;;;10.10;99.90;;;;;;5010599;28;20102;-45
2022/02/16 01:54:31;;;;;;;16.75;12.13;;;10.10;99.90;;;;;;5029947;28;20084;-46
2022/02/16 01:56:57;;;;;;;14.88;10.95;;;10.10;99.90;;;;;;5025222;28;20048;-46
2022/02/16 01:59:25;;;;;;;15.85;10.45;;;10.00;99.90;;;;;;5030479;28;20029;-46
2022/02/16 02:01:51;;;;;;;13.73;9.45;;;9.90;99.90;;;;;;4921503;29;20110;-45
2022/02/16 02:04:19;;;;;;;14.88;10.63;;;10.00;99.90;;;;;;4971227;28;20034;-45
2022/02/16 02:06:45;;;;;;;15.75;10.63;;;10.10;99.90;;;;;;4963154;28;20093;-45
2022/02/16 02:09:12;;;;;;;14.13;10.25;;;10.00;99.90;;;;;;4961467;28;20171;-44
2022/02/16 02:11:38;;;;;;;13.15;9.52;;;10.10;99.90;;;;;;4965499;28;20043;-45
2022/02/16 02:14:06;;;;;;;12.45;10.05;;;10.10;99.90;;;;;;4964908;28;20113;-49
2022/02/16 02:16:32;;;;;;;14.48;10.27;;;10.10;99.90;;;;;;4960389;28;20066;-45
2022/02/16 02:18:59;;;;;;;14.10;10.63;;;10.10;99.90;;;;;;4959969;28;20031;-45
2022/02/16 02:21:26;;;;;;;12.27;9.27;;;10.10;99.90;;;;;;4963695;28;20066;-45
2022/02/16 02:23:54;;;;;;;12.82;9.27;;;10.10;99.90;;;;;;4966129;28;20546;-45
2022/02/16 02:26:19;;;;;;;11.63;8.65;;;10.10;99.90;;;;;;4959248;28;20114;-45
2022/02/16 02:28:46;;;;;;;14.95;9.05;;;10.10;99.90;;;;;;4965699;28;20131;-45
2022/02/16 02:31:13;;;;;;;12.35;9.63;;;10.20;99.90;;;;;;4960639;28;20030;-46
2022/02/16 02:33:39;;;;;;;15.77;8.93;;;10.30;99.90;;;;;;5005513;28;20080;-45
2022/02/16 02:36:06;;;;;;;14.55;8.98;;;10.30;99.90;;;;;;5011184;28;20041;-45
2022/02/16 02:38:34;;;;;;;13.10;9.20;;;10.30;99.90;;;;;;5009807;28;20120;-46
2022/02/16 02:41:02;;;;;;;12.25;9.10;;;10.30;99.90;;;;;;5013423;28;20445;-46
2022/02/16 02:43:29;;;;;;;14.80;10.57;;;10.30;99.90;;;;;;5009285;28;20041;-45
2022/02/16 02:45:56;;;;;;;10.15;8.18;;;10.40;99.90;;;;;;5008284;28;20030;-45
2022/02/16 02:48:23;;;;;;;13.57;8.77;;;10.40;99.90;;;;;;5013643;28;20040;-45
2022/02/16 02:50:53;;;;;;;14.40;9.63;;;10.50;99.90;;;;;;5010404;28;20030;-45
2022/02/16 02:53:19;;;;;;;16.05;9.73;;;10.50;99.90;;;;;;5011134;28;20029;-45
2022/02/16 02:55:45;;;;;;;15.25;10.23;;;10.60;99.90;;;;;;5011238;28;20026;-45
2022/02/16 02:58:11;;;;;;;13.40;9.63;;;10.70;99.90;;;;;;5010716;28;20029;-46
2022/02/16 03:00:37;;;;;;;17.85;9.88;;;10.60;99.90;;;;;;5008422;28;20080;-45
2022/02/16 03:03:03;;;;;;;12.10;9.35;;;10.60;99.90;;;;;;5005958;28;20493;-45
2022/02/16 03:05:29;;;;;;;11.75;9.63;;;10.70;99.90;;;;;;4978470;28;20049;-45
2022/02/16 03:07:55;;;;;;;11.23;9.68;;;10.60;99.90;;;;;;5008020;28;20041;-45
2022/02/16 03:10:20;;;;;;;13.30;10.75;;;10.60;99.90;;;;;;5011182;28;20033;-45
2022/02/16 03:12:46;;;;;;;12.13;9.60;;;10.70;99.90;;;;;;5013570;28;20061;-45
2022/02/16 03:15:12;;;;;;;12.07;8.95;;;10.70;99.90;;;;;;4978224;28;20030;-46
2022/02/16 03:17:38;;;;;;;12.95;9.20;;;10.70;99.90;;;;;;5012185;28;20081;-46
2022/02/16 03:20:05;;;;;;;11.40;8.43;;;10.70;99.90;;;;;;5013043;28;20026;-45
2022/02/16 03:22:32;;;;;;;12.95;8.90;;;10.70;99.90;;;;;;5002939;28;20117;-45
2022/02/16 03:24:58;;;;;;;10.10;8.40;;;10.70;99.90;;;;;;5004031;28;20034;-45
2022/02/16 03:27:24;;;;;;;10.40;8.20;;;10.70;99.90;;;;;;5008348;28;20041;-45
2022/02/16 03:29:49;;;;;;;10.30;7.30;;;10.70;99.90;;;;;;5013473;28;20030;-45
2022/02/16 03:32:15;;;;;;;12.50;9.57;;;10.70;99.90;;;;;;5012318;28;20382;-45
2022/02/16 03:34:41;;;;;;;13.85;9.15;;;10.70;99.90;;;;;;5016633;28;20041;-45
2022/02/16 03:37:08;;;;;;;10.73;7.95;;;10.80;99.90;;;;;;5013965;28;20092;-45
2022/02/16 03:39:34;;;;;;;9.35;7.38;;;10.80;99.90;;;;;;5014620;28;20375;-46
2022/02/16 03:42:02;;;;;;;11.50;8.10;;;10.80;99.90;;;;;;5010120;28;20145;-45
2022/02/16 03:44:28;;;;;;;12.63;9.27;;;10.90;99.90;;;;;;5010194;28;20486;-46
2022/02/16 03:46:55;;;;;;;15.25;12.90;;;10.80;99.90;;;;;;5014882;28;20084;-45
2022/02/16 03:49:22;;;;;;;10.30;8.00;;;10.80;99.90;;;;;;5014953;28;20041;-46
2022/02/16 03:51:48;;;;;;;11.90;8.25;;;10.80;99.90;;;;;;5012779;28;20026;-45
2022/02/16 03:54:14;;;;;;;12.25;9.52;;;10.80;99.90;;;;;;5011041;28;20030;-46
2022/02/16 03:56:39;;;;;;;13.75;8.10;;;10.70;99.90;;;;;;5014506;28;20084;-45
2022/02/16 03:59:05;;;;;;;11.98;9.43;;;10.80;99.90;;;;;;5028430;28;20405;-46
2022/02/16 04:01:31;;;;;;;16.10;12.38;;;10.70;99.90;;;;;;5013692;28;20049;-45
2022/02/16 04:03:57;;;;;;;14.05;11.32;;;10.70;99.90;;;;;;5012049;28;20048;-45
2022/02/16 04:06:23;;;;;;;11.57;9.10;;;10.80;99.90;;;;;;4966730;28;20049;-46
2022/02/16 04:08:49;;;;;;;12.35;8.88;;;10.80;99.90;;;;;;5028511;28;20030;-45
2022/02/16 04:11:17;;;;;;;12.70;9.63;;;10.80;99.90;;;;;;5013825;28;20030;-46
2022/02/16 04:13:43;;;;;;;13.75;9.80;;;10.70;99.90;;;;;;5013951;28;20101;-46
2022/02/16 04:16:09;;;;;;;10.77;8.80;;;10.60;99.90;;;;;;5013253;28;20029;-46
2022/02/16 04:18:35;;;;;;;12.07;8.75;;;10.00;99.90;;;;;;5012549;28;20358;-45
2022/02/16 04:21:01;;;;;;;9.98;8.02;;;9.70;99.90;;;;;;5014128;28;20036;-45
2022/02/16 04:23:27;;;;;;;11.32;8.13;;;9.50;99.90;;;;;;5013754;28;20026;-45
2022/02/16 04:25:53;;;;;;;11.18;8.30;;;9.30;99.90;;;;;;5013218;28;20025;-46
2022/02/16 04:28:21;;;;;;;14.15;9.75;;;9.20;99.90;;;;;;5012380;28;20022;-46
2022/02/16 04:30:47;;;;;;;13.63;10.27;;;9.40;99.90;;;;;;5015645;28;20033;-45
2022/02/16 04:33:13;;;;;;;14.35;10.15;;;9.80;99.90;;;;;;5012126;28;20026;-46
2022/02/16 04:35:39;;;;;;;14.65;9.50;;;10.10;99.90;;;;;;5009630;28;20076;-45
2022/02/16 04:38:05;;;;;;;13.75;9.77;;;10.30;99.90;;;;;;5007128;28;20532;-45
2022/02/16 04:40:30;;;;;;;12.25;10.05;;;10.50;99.90;;;;;;5010817;28;20072;-45
2022/02/16 04:42:56;;;;;;;13.65;9.85;;;10.70;99.90;;;;;;5015532;28;20065;-45
2022/02/16 04:45:23;;;;;;;14.02;9.73;;;10.80;99.90;;;;;;5011726;28;20034;-46
2022/02/16 04:47:48;;;;;;;11.48;9.23;;;10.90;99.90;;;;;;5013511;28;20045;-46
2022/02/16 04:50:14;;;;;;;12.10;9.13;;;10.90;99.90;;;;;;5029839;28;20065;-46
2022/02/16 04:52:40;;;;;;;12.50;9.52;;;10.90;99.90;;;;;;5012760;28;20309;-45
2022/02/16 04:55:11;;;;;;;12.23;9.60;;;10.90;99.90;;;;;;5011315;28;20033;-46
2022/02/16 04:57:37;;;;;;;12.27;9.02;;;10.90;99.90;;;;;;5010908;28;20044;-45
2022/02/16 05:00:08;;;;;;;10.73;8.90;;;11.00;99.90;;;;;;5009673;28;20040;-46
2022/02/16 05:02:34;;;;;;;13.07;9.65;;;11.10;99.90;;;;;;5013593;28;20096;-46
2022/02/16 05:05:00;;;;;;;10.68;9.05;;;11.00;99.90;;;;;;5012574;28;20034;-45
2022/02/16 05:07:26;;;;;;;10.32;9.23;;;11.00;99.90;;;;;;4978737;28;20092;-45
2022/02/16 05:09:52;;;;;;;13.98;9.98;;;11.10;99.90;;;;;;5013070;28;20025;-46
2022/02/16 05:12:17;;;;;;;12.38;9.05;;;11.10;99.90;;;;;;5027497;28;20041;-46
2022/02/16 05:14:43;;;;;;;13.10;10.00;;;11.20;99.90;;;;;;5010160;28;20053;-46
2022/02/16 05:17:09;;;;;;;9.85;8.48;;;11.10;99.90;;;;;;5008767;28;20038;-47
2022/02/16 05:19:35;;;;;;;12.40;9.13;;;11.00;99.90;;;;;;5014425;28;20040;-46
2022/02/16 05:22:01;;;;;;;14.73;11.43;;;10.60;99.90;;;;;;5012597;28;20038;-45
2022/02/16 05:24:27;;;;;;;15.15;10.15;;;10.50;99.90;;;;;;5012615;28;20478;-46
2022/02/16 05:26:53;;;;;;;11.82;9.90;;;10.30;99.90;;;;;;5009950;28;20088;-46
2022/02/16 05:29:19;;;;;;;15.77;11.48;;;10.40;99.90;;;;;;5010944;28;20488;-46
2022/02/16 05:31:44;;;;;;;16.17;10.77;;;10.40;99.90;;;;;;5010524;28;20025;-46
2022/02/16 05:34:11;;;;;;;13.23;11.23;;;10.40;99.90;;;;;;5011722;28;20037;-46
2022/02/16 05:36:37;;;;;;;13.95;11.65;;;10.30;99.90;;;;;;5008988;28;20076;-46
2022/02/16 05:39:04;;;;;;;14.18;11.30;;;10.50;99.90;;;;;;5008632;28;20080;-46
2022/02/16 05:41:30;;;;;;;17.85;13.45;;;10.40;99.90;;;;;;4987578;28;20040;-45
2022/02/16 05:43:57;;;;;;;21.95;16.17;;;10.40;99.90;;;;;;5003136;28;20388;-46
2022/02/16 05:46:24;;;;;;;20.85;16.55;;;10.40;99.90;;;;;;5011726;28;20026;-46
2022/02/16 05:48:49;;;;;;;22.20;15.43;;;10.40;99.90;;;;;;5009415;28;20117;-45
2022/02/16 05:51:16;;;;;;;22.80;16.25;;;10.40;99.90;;;;;;5005161;28;20105;-47
2022/02/16 05:53:42;;;;;;;20.88;16.02;;;10.50;99.90;;;;;;5005527;28;20061;-46
2022/02/16 05:56:08;;;;;;;18.23;15.65;;;10.60;99.90;;;;;;5012453;28;20488;-45
2022/02/16 05:58:34;;;;;;;18.95;14.88;;;10.70;99.90;;;;;;5011869;28;20026;-45
2022/02/16 06:01:01;;;;;;;17.98;15.30;;;10.90;99.90;;;;;;5006206;28;20114;-46
2022/02/16 06:03:27;;;;;;;17.05;13.07;;;11.00;99.90;;;;;;5009288;28;20088;-46
2022/02/16 06:05:53;;;;;;;14.20;11.82;;;11.10;99.90;;;;;;5011419;28;20026;-46
2022/02/16 06:08:19;;;;;;;15.35;11.23;;;11.10;99.90;;;;;;4946555;28;20116;-46
2022/02/16 06:10:45;;;;;;;11.90;10.20;;;11.00;99.90;;;;;;5012749;28;20061;-45
2022/02/16 06:13:12;;;;;;;15.10;11.38;;;10.90;99.90;;;;;;4968015;28;20521;-50
2022/02/16 06:15:38;;;;;;;19.48;11.82;;;10.80;99.90;;;;;;5015674;28;20547;-48
2022/02/16 06:18:04;;;;;;;15.30;11.32;;;10.60;99.90;;;;;;5009213;28;20038;-45
2022/02/16 06:20:30;;;;;;;16.88;11.90;;;10.50;99.90;;;;;;5007852;28;20076;-51
2022/02/16 06:22:56;;;;;;;16.58;11.13;;;10.60;99.90;;;;;;5006491;28;20038;-49
2022/02/16 06:25:24;;;;;;;13.65;10.77;;;10.50;99.90;;;;;;5008881;28;20022;-50
2022/02/16 06:27:50;;;;;;;13.70;10.68;;;10.50;99.90;;;;;;5007540;28;20118;-52
2022/02/16 06:30:17;;;;;;;13.60;11.52;;;10.60;99.90;;;;;;5008818;28;20039;-51
2022/02/16 06:32:44;;;;;;;15.93;13.10;;;10.60;99.90;;;;;;5008079;28;20033;-49
2022/02/16 06:35:11;;;;;;;15.65;13.65;;;10.70;99.90;;;;;;5004435;28;20076;-52
2022/02/16 06:37:36;;;;;;;19.05;14.73;;;10.60;99.90;;;;;;5009246;28;20061;-47
2022/02/16 06:40:03;;;;;;;19.42;16.60;;;10.70;99.90;;;;;;5005360;28;20034;-52
2022/02/16 06:42:29;;;;;;;17.90;14.40;;;10.70;99.90;;;;;;5008747;28;20086;-48
2022/02/16 06:44:54;;;;;;;14.75;12.63;;;10.70;99.90;;;;;;5006379;28;20079;-45
2022/02/16 06:47:20;;;;;;;15.80;12.55;;;10.20;99.90;;;;;;5009408;28;20481;-50
2022/02/16 06:49:46;;;;;;;24.65;19.33;;;10.00;99.90;;;;;;5010275;28;20026;-50
2022/02/16 06:52:12;;;;;;;61.03;42.83;;;10.30;99.90;;;;;;5011363;28;20088;-48
2022/02/16 06:54:37;;;;;;;36.65;29.23;;;10.60;99.90;;;;;;5004954;28;20474;-52
2022/02/16 06:57:04;;;;;;;51.83;39.58;;;10.80;99.90;;;;;;5008747;28;20040;-52
2022/02/16 06:59:30;;;;;;;47.78;36.13;;;10.90;99.90;;;;;;5004309;28;20026;-47
2022/02/16 07:01:56;;;;;;;44.72;34.70;;;;;;;;;;5009742;28;20380;-48
2022/02/16 07:04:22;;;;;;;43.17;33.78;;;11.00;99.90;;;;;;5011275;28;20506;-50
2022/02/16 07:06:47;;;;;;;41.28;33.78;;;11.20;99.90;;;;;;5015867;28;20025;-49
2022/02/16 07:09:13;;;;;;;35.13;27.23;;;11.20;99.90;;;;;;5013751;28;20100;-50
2022/02/16 07:11:39;;;;;;;27.90;23.95;;;11.30;99.90;;;;;;5015482;28;20480;-52
2022/02/16 07:14:04;;;;;;;29.80;26.08;;;11.50;99.90;;;;;;5014754;28;20026;-47
2022/02/16 07:16:31;;;;;;;37.40;30.65;;;11.50;99.90;;;;;;4994367;28;20194;-47
2022/02/16 07:18:57;;;;;;;34.58;28.27;;;11.60;99.90;;;;;;5031600;28;20367;-47
2022/02/16 07:21:23;;;;;;;34.75;29.80;;;11.60;99.90;;;;;;5007105;28;20402;-47
2022/02/16 07:23:50;;;;;;;30.08;24.73;;;11.60;99.90;;;;;;5017758;28;20038;-50
2022/02/16 07:26:16;;;;;;;37.45;30.48;;;11.50;99.90;;;;;;5021882;28;20809;-52
2022/02/16 07:28:42;;;;;;;29.35;24.83;;;11.60;99.90;;;;;;5024501;28;20053;-47
2022/02/16 07:31:09;;;;;;;29.58;24.35;;;11.50;99.90;;;;;;5027410;28;20058;-50
2022/02/16 07:33:35;;;;;;;29.55;25.40;;;11.50;99.90;;;;;;5027302;28;20141;-49
2022/02/16 07:36:01;;;;;;;36.55;29.75;;;11.50;99.90;;;;;;5027398;28;20077;-46
2022/02/16 07:38:27;;;;;;;42.47;32.65;;;11.50;99.90;;;;;;5016615;28;20492;-52
2022/02/16 07:40:53;;;;;;;46.63;35.90;;;11.60;99.90;;;;;;5024095;28;20026;-53
2022/02/16 07:43:19;;;;;;;61.10;43.75;;;11.60;99.90;;;;;;5026816;28;20152;-47
2022/02/16 07:45:45;;;;;;;96.28;76.55;;;11.80;99.90;;;;;;5023088;28;20017;-46
2022/02/16 07:48:11;;;;;;;122.00;89.95;;;11.90;99.90;;;;;;5027342;28;20052;-44
2022/02/16 07:50:37;;;;;;;62.17;46.42;;;11.80;99.90;;;;;;5029187;28;20025;-47
2022/02/16 07:53:04;;;;;;;49.20;39.22;;;11.80;99.90;;;;;;5023276;28;20536;-47
2022/02/16 07:55:31;;;;;;;31.38;24.48;;;11.90;99.90;;;;;;5012438;28;20517;-49
2022/02/16 07:58:01;;;;;;;26.50;21.75;;;12.00;99.90;;;;;;5014132;28;20046;-48
2022/02/16 08:00:29;;;;;;;30.73;23.60;;;12.00;99.90;;;;;;5014293;28;20041;-45
2022/02/16 08:02:55;;;;;;;28.45;20.90;;;12.00;99.90;;;;;;5005387;28;20054;-47
2022/02/16 08:05:21;;;;;;;18.52;16.52;;;11.80;99.90;;;;;;4972482;28;20040;-50
2022/02/16 08:07:47;;;;;;;18.00;14.30;;;11.90;99.90;;;;;;5012090;28;20458;-52
2022/02/16 08:10:12;;;;;;;18.25;15.00;;;12.00;99.90;;;;;;5015748;28;20466;-50
2022/02/16 08:12:48;;;;;;;23.52;19.75;;;12.10;99.90;;;;;;5010192;28;20030;-51
2022/02/16 08:15:14;;;;;;;25.55;20.90;;;12.10;99.90;;;;;;5029302;28;20038;-49
2022/02/16 08:17:42;;;;;;;26.98;22.13;;;12.10;99.90;;;;;;5011295;28;20053;-50
2022/02/16 08:20:12;;;;;;;26.48;21.10;;;12.20;99.90;;;;;;5009783;28;20030;-48
2022/02/16 08:22:38;;;;;;;29.90;24.35;;;12.20;99.90;;;;;;5010176;28;20029;-49
2022/02/16 08:25:06;;;;;;;19.10;16.08;;;12.00;99.90;;;;;;5015806;28;20080;-51
2022/02/16 08:27:32;;;;;;;16.83;14.82;;;12.20;99.90;;;;;;5010430;28;20040;-50
2022/02/16 08:29:58;;;;;;;60.58;36.42;;;12.10;99.90;;;;;;5018201;28;20026;-49
2022/02/16 08:32:24;;;;;;;25.75;18.73;;;12.10;99.90;;;;;;5014345;28;20080;-47
2022/02/16 08:34:50;;;;;;;29.45;19.20;;;11.90;99.90;;;;;;5020886;28;20038;-51
2022/02/16 08:37:16;;;;;;;31.00;20.75;;;11.80;99.90;;;;;;5015622;28;20049;-51
2022/02/16 08:39:42;;;;;;;32.17;20.05;;;11.70;99.90;;;;;;5010371;28;20390;-45
2022/02/16 08:42:08;;;;;;;24.30;18.35;;;11.50;99.90;;;;;;5018285;28;20036;-46
2022/02/16 08:44:34;;;;;;;65.28;40.63;;;11.60;99.90;;;;;;5007623;28;20043;-48
2022/02/16 08:46:59;;;;;;;33.35;22.92;;;11.70;99.90;;;;;;5012570;28;20046;-49
2022/02/16 08:49:25;;;;;;;23.67;18.42;;;11.70;99.90;;;;;;5019786;28;20314;-48
2022/02/16 08:51:52;;;;;;;57.78;38.60;;;12.00;99.90;;;;;;5012850;28;20092;-48
2022/02/16 08:54:17;;;;;;;28.52;22.08;;;12.20;99.90;;;;;;5011773;28;20080;-46
2022/02/16 08:56:45;;;;;;;21.55;18.42;;;12.40;99.90;;;;;;5013917;28;20069;-45
2022/02/16 08:59:11;;;;;;;28.92;22.35;;;12.30;99.90;;;;;;5012012;28;20026;-48
2022/02/16 09:01:37;;;;;;;39.33;26.85;;;12.10;99.90;;;;;;5011142;28;20128;-46
2022/02/16 09:04:04;;;;;;;23.38;18.67;;;12.20;99.90;;;;;;5025684;28;20061;-53
2022/02/16 09:06:31;;;;;;;21.35;17.33;;;12.20;99.90;;;;;;5014901;28;20386;-43
2022/02/16 09:08:57;;;;;;;23.27;18.92;;;12.30;99.90;;;;;;5013307;28;20107;-53
2022/02/16 09:11:23;;;;;;;22.50;20.10;;;12.50;99.90;;;;;;5026376;28;20077;-46
2022/02/16 09:13:49;;;;;;;26.50;19.85;;;;;;;;;;5025420;28;20045;-48
2022/02/16 09:16:15;;;;;;;26.80;19.70;;;12.90;99.90;;;;;;5014718;28;20024;-49
2022/02/16 09:18:41;;;;;;;17.23;13.75;;;12.80;99.90;;;;;;5012252;28;20062;-46
2022/02/16 09:21:08;;;;;;;16.92;13.13;;;12.60;99.90;;;;;;5012903;28;20065;-51
2022/02/16 09:23:35;;;;;;;32.05;23.35;;;12.50;99.90;;;;;;5012122;28;20065;-45
2022/02/16 09:26:05;;;;;;;15.40;12.68;;;12.80;99.90;;;;;;5008984;28;20061;-46
2022/02/16 09:28:32;;;;;;;13.32;11.88;;;12.60;99.90;;;;;;5006445;28;20525;-46
2022/02/16 09:30:59;;;;;;;21.67;16.48;;;12.80;99.90;;;;;;5014705;28;20057;-45
2022/02/16 09:33:26;;;;;;;14.38;11.82;;;12.70;99.90;;;;;;4963209;28;20038;-48
2022/02/16 09:35:53;;;;;;;19.08;15.43;;;12.70;99.90;;;;;;5010095;28;20105;-47
2022/02/16 09:38:18;;;;;;;18.10;15.77;;;12.90;99.90;;;;;;5009606;28;20031;-44
2022/02/16 09:40:46;;;;;;;16.85;14.68;;;12.90;99.90;;;;;;5011957;28;20025;-51
2022/02/16 09:43:14;;;;;;;15.00;12.85;;;13.10;99.90;;;;;;5012585;28;20029;-51
2022/02/16 09:45:40;;;;;;;18.88;15.07;;;13.20;99.90;;;;;;5012643;28;20065;-44
2022/02/16 09:48:06;;;;;;;17.40;13.32;;;13.20;99.90;;;;;;5008168;28;20060;-44
2022/02/16 09:50:34;;;;;;;16.70;12.77;;;13.50;99.90;;;;;;5012244;28;20034;-45
2022/02/16 09:53:00;;;;;;;15.07;12.35;;;13.50;99.90;;;;;;5011785;28;20060;-46
2022/02/16 09:55:27;;;;;;;14.30;12.80;;;13.70;99.90;;;;;;5012589;28;20022;-43
2022/02/16 09:57:53;;;;;;;19.88;14.93;;;13.60;99.90;;;;;;5011230;28;20108;-45
2022/02/16 10:00:19;;;;;;;18.33;14.25;;;14.10;99.90;;;;;;5008797;28;20593;-51
2022/02/16 10:02:46;;;;;;;13.63;12.23;;;14.30;99.90;;;;;;4993975;28;20049;-47
2022/02/16 10:05:14;;;;;;;12.50;11.20;;;14.30;99.90;;;;;;4973361;28;20041;-46
2022/02/16 10:07:45;;;;;;;15.40;11.35;;;14.10;99.90;;;;;;5012170;28;20377;-49
2022/02/16 10:10:27;;;;;;;15.23;12.55;;;14.30;99.90;;;;;;5011052;28;20057;-48
2022/02/16 10:12:55;;;;;;;16.80;10.45;;;14.70;99.90;;;;;;5012688;28;20374;-48
2022/02/16 10:15:40;;;;;;;11.82;10.52;;;15.10;99.90;;;;;;5008179;28;20112;-50
2022/02/16 10:18:16;;;;;;;13.40;9.90;;;14.90;99.90;;;;;;5009579;28;20466;-46
2022/02/16 10:20:43;;;;;;;10.35;9.02;;;15.30;99.90;;;;;;5011359;28;20065;-44
2022/02/16 10:23:10;;;;;;;9.80;8.73;;;15.40;99.90;;;;;;5005006;28;20026;-50
2022/02/16 10:25:36;;;;;;;8.18;7.07;;;15.70;99.90;;;;;;5011236;28;20030;-45
2022/02/16 10:28:12;;;;;;;18.48;8.60;;;15.60;99.90;;;;;;5009993;28;20505;-48
2022/02/16 10:30:59;;;;;;;9.57;7.72;;;15.70;99.90;;;;;;5024920;28;20041;-44
2022/02/16 10:33:33;;;;;;;8.60;7.70;;;15.40;99.90;;;;;;5011793;28;20064;-46
2022/02/16 10:36:11;;;;;;;8.73;7.55;;;15.90;99.90;;;;;;5001374;28;20083;-46
2022/02/16 10:39:06;;;;;;;6.80;6.10;;;15.50;99.90;;;;;;5009628;28;20538;-48
2022/02/16 10:41:58;;;;;;;11.77;7.88;;;15.60;99.90;;;;;;5031110;28;20041;-45
2022/02/16 10:44:26;;;;;;;9.27;7.20;;;;;;;;;;5013286;28;20033;-46
2022/02/16 10:47:09;;;;;;;9.35;7.35;;;15.90;99.90;;;;;;5020918;28;20371;-45
2022/02/16 10:49:37;;;;;;;14.00;8.18;;;16.70;99.90;;;;;;5007668;28;20026;-49
2022/02/16 10:52:12;;;;;;;11.73;7.18;;;17.10;99.90;;;;;;5010606;28;20021;-51
2022/02/16 10:54:39;;;;;;;9.27;6.63;;;17.40;99.90;;;;;;5013315;28;20106;-48
2022/02/16 10:57:06;;;;;;;9.05;6.82;;;17.30;99.90;;;;;;5019991;28;20041;-46
2022/02/16 10:59:33;;;;;;;9.32;7.47;;;17.90;99.90;;;;;;5020451;28;20029;-50
2022/02/16 11:02:06;;;;;;;13.75;7.20;;;17.10;99.90;;;;;;5023264;28;20061;-47
2022/02/16 11:04:35;;;;;;;8.93;6.45;;;17.10;99.90;;;;;;5012418;28;20045;-53
2022/02/16 11:07:02;;;;;;;10.82;7.25;;;16.00;99.90;;;;;;5010392;28;20045;-55
2022/02/16 11:09:32;;;;;;;11.55;8.73;;;15.70;99.90;;;;;;5013466;28;20167;-49
2022/02/16 11:12:00;;;;;;;7.53;6.72;;;15.00;99.90;;;;;;5008922;28;20111;-52
2022/02/16 11:14:31;;;;;;;6.88;5.80;;;14.50;99.90;;;;;;5010416;28;20057;-53
2022/02/16 11:16:58;;;;;;;10.27;6.22;;;14.20;99.90;;;;;;5007942;28;20474;-49
2022/02/16 11:19:37;;;;;;;9.98;6.15;;;14.30;99.90;;;;;;5008208;28;20037;-46
2022/02/16 11:22:14;;;;;;;16.10;7.35;;;14.10;99.90;;;;;;5010849;28;20117;-52
2022/02/16 11:24:44;;;;;;;16.77;8.40;;;14.30;99.90;;;;;;5010302;28;20033;-45
2022/02/16 11:27:31;;;;;;;9.75;7.00;;;14.40;99.90;;;;;;5005574;28;20034;-55
2022/02/16 11:30:09;;;;;;;13.73;7.75;;;14.80;99.90;;;;;;5007773;28;20042;-56
2022/02/16 11:32:40;;;;;;;12.30;6.65;;;15.00;99.90;;;;;;5007935;28;20045;-53
2022/02/16 11:35:17;;;;;;;6.93;5.60;;;15.00;99.90;;;;;;4991684;28;20425;-46
2022/02/16 11:37:45;;;;;;;8.20;5.40;;;15.30;99.90;;;;;;5007751;28;20058;-51
2022/02/16 11:40:13;;;;;;;7.75;6.60;;;15.20;99.90;;;;;;5003740;28;20048;-51
2022/02/16 11:42:53;;;;;;;12.52;7.45;;;15.30;99.90;;;;;;5006321;28;20038;-45
2022/02/16 11:45:21;;;;;;;13.80;11.30;;;14.90;99.90;;;;;;4949020;28;20394;-47
2022/02/16 11:47:50;;;;;;;7.07;6.35;;;14.60;99.90;;;;;;4986310;28;20047;-48
2022/02/16 11:50:15;;;;;;;11.80;9.98;;;14.20;99.90;;;;;;5010375;28;20046;-50
2022/02/16 11:52:50;;;;;;;15.82;10.30;;;14.00;99.90;;;;;;5002946;28;20038;-52
2022/02/16 11:55:33;;;;;;;13.15;8.70;;;14.70;99.90;;;;;;5011743;28;20085;-48
2022/02/16 11:58:01;;;;;;;11.55;7.88;;;14.70;99.90;;;;;;5005153;28;20505;-52
2022/02/16 12:00:28;;;;;;;12.85;8.20;;;14.70;99.90;;;;;;5009995;28;20042;-47
2022/02/16 12:03:08;;;;;;;8.65;7.13;;;14.90;99.90;;;;;;5007991;28;20470;-49
2022/02/16 12:05:49;;;;;;;10.40;8.40;;;14.30;99.90;;;;;;4978538;28;20556;-51
2022/02/16 12:08:37;;;;;;;10.23;8.45;;;14.40;99.90;;;;;;5013145;28;20034;-44
2022/02/16 12:11:20;;;;;;;9.98;8.48;;;14.40;99.90;;;;;;5013650;28;20034;-51
2022/02/16 12:14:01;;;;;;;10.18;9.10;;;14.50;99.90;;;;;;5012582;28;20184;-48
2022/02/16 12:16:30;;;;;;;9.80;7.80;;;14.30;99.90;;;;;;5012360;28;20048;-46
2022/02/16 12:19:00;;;;;;;10.38;8.15;;;14.50;99.90;;;;;;5010083;28;20060;-55
2022/02/16 12:21:38;;;;;;;9.45;8.40;;;14.80;99.90;;;;;;5010963;28;20084;-53
2022/02/16 12:24:15;;;;;;;8.90;8.00;;;15.20;99.90;;;;;;5007416;28;20096;-49
2022/02/16 12:26:47;;;;;;;9.35;7.95;;;15.40;99.90;;;;;;5013154;28;20513;-51
2022/02/16 12:29:18;;;;;;;16.17;12.65;;;15.60;99.90;;;;;;5010875;28;20034;-48
2022/02/16 12:31:49;;;;;;;10.73;8.38;;;16.00;99.90;;;;;;5010729;28;20153;-53
2022/02/16 12:34:20;;;;;;;11.18;8.82;;;16.10;99.90;;;;;;5013489;28;20436;-46
2022/02/16 12:36:51;;;;;;;9.53;8.53;;;16.10;99.90;;;;;;5013034;28;20035;-51
2022/02/16 12:39:19;;;;;;;9.98;8.35;;;16.00;99.90;;;;;;5015432;28;20026;-52